sensor_id;sensor_type;location;lat;lon;timestamp;pressure;altitude;pressure_sealevel;temperature;humidity
12203;BME280;6164;42.178;24.622;2023-05-22T00:01:37;99314.19;;;17.50;100.00
12203;BME280;6164;42.178;24.622;2023-05-22T00:04:07;99306.88;;;17.39;100.00
12203;BME280;6164;42.178;24.622;2023-05-22T00:06:34;99315.03;;;17.44;100.00
12203;BME280;6164;42.178;24.622;2023-05-22T00:09:02;99312.81;;;17.41;100.00
12203;BME280;6164;42.178;24.622;2023-05-22T00:11:29;99310.56;;;17.38;100.00
12203;BME280;6164;42.178;24.622;2023-05-22T00:13:56;99316.34;;;17.35;100.00
12203;BME280;6164;42.178;24.622;2023-05-22T00:16:23;99305.94;;;17.27;100.00
12203;BME280;6164;42.178;24.622;2023-05-22T00:18:49;99317.28;;;17.23;100.00
12203;BME280;6164;42.178;24.622;2023-05-22T00:21:16;99318.13;;;17.17;100.00
12203;BME280;6164;42.178;24.622;2023-05-22T00:23:44;99315.09;;;17.13;100.00
12203;BME280;6164;42.178;24.622;2023-05-22T00:26:14;99317.97;;;17.12;100.00
12203;BME280;6164;42.178;24.622;2023-05-22T00:28:41;99316.78;;;17.07;100.00
12203;BME280;6164;42.178;24.622;2023-05-22T00:31:08;99322.38;;;16.99;100.00
12203;BME280;6164;42.178;24.622;2023-05-22T00:33:34;99328.41;;;16.82;100.00
12203;BME280;6164;42.178;24.622;2023-05-22T00:36:01;99328.13;;;16.65;100.00
12203;BME280;6164;42.178;24.622;2023-05-22T00:38:29;99331.69;;;16.46;100.00
12203;BME280;6164;42.178;24.622;2023-05-22T00:40:56;99333.75;;;16.31;100.00
12203;BME280;6164;42.178;24.622;2023-05-22T00:43:24;99343.16;;;16.40;100.00
12203;BME280;6164;42.178;24.622;2023-05-22T00:45:51;99339.47;;;16.41;100.00
12203;BME280;6164;42.178;24.622;2023-05-22T00:48:18;99335.19;;;16.47;100.00
12203;BME280;6164;42.178;24.622;2023-05-22T00:50:45;99340.06;;;16.50;100.00
12203;BME280;6164;42.178;24.622;2023-05-22T00:53:12;99346.03;;;16.52;100.00
12203;BME280;6164;42.178;24.622;2023-05-22T00:55:39;99344.16;;;16.52;100.00
12203;BME280;6164;42.178;24.622;2023-05-22T00:58:12;99330.66;;;16.54;100.00
12203;BME280;6164;42.178;24.622;2023-05-22T01:00:40;99330.84;;;16.52;100.00
12203;BME280;6164;42.178;24.622;2023-05-22T01:03:07;99327.16;;;16.53;100.00
12203;BME280;6164;42.178;24.622;2023-05-22T01:05:35;99332.28;;;16.55;100.00
12203;BME280;6164;42.178;24.622;2023-05-22T01:08:03;99338.81;;;16.59;100.00
12203;BME280;6164;42.178;24.622;2023-05-22T01:10:30;99332.06;;;16.56;100.00
12203;BME280;6164;42.178;24.622;2023-05-22T01:13:02;99338.97;;;16.64;100.00
12203;BME280;6164;42.178;24.622;2023-05-22T01:15:34;99343.28;;;16.65;100.00
12203;BME280;6164;42.178;24.622;2023-05-22T01:18:13;99336.69;;;16.67;100.00
12203;BME280;6164;42.178;24.622;2023-05-22T01:20:51;99333.25;;;16.67;100.00
12203;BME280;6164;42.178;24.622;2023-05-22T01:26:35;99322.78;;;16.65;100.00
12203;BME280;6164;42.178;24.622;2023-05-22T01:29:27;99311.91;;;16.67;100.00
12203;BME280;6164;42.178;24.622;2023-05-22T01:32:01;99318.25;;;16.66;100.00
12203;BME280;6164;42.178;24.622;2023-05-22T01:34:31;99317.66;;;16.70;100.00
12203;BME280;6164;42.178;24.622;2023-05-22T01:37:00;99325.44;;;16.72;100.00
12203;BME280;6164;42.178;24.622;2023-05-22T01:39:29;99322.31;;;16.75;100.00
12203;BME280;6164;42.178;24.622;2023-05-22T01:41:57;99310.41;;;16.77;100.00
12203;BME280;6164;42.178;24.622;2023-05-22T01:44:24;99315.72;;;16.77;100.00
12203;BME280;6164;42.178;24.622;2023-05-22T01:46:50;99319.84;;;16.80;100.00
12203;BME280;6164;42.178;24.622;2023-05-22T01:49:19;99315.50;;;16.79;100.00
12203;BME280;6164;42.178;24.622;2023-05-22T01:51:51;99319.84;;;16.80;100.00
12203;BME280;6164;42.178;24.622;2023-05-22T01:54:22;99318.78;;;16.81;100.00
12203;BME280;6164;42.178;24.622;2023-05-22T01:56:52;99312.22;;;16.83;100.00
12203;BME280;6164;42.178;24.622;2023-05-22T01:59:26;99314.91;;;16.83;100.00
12203;BME280;6164;42.178;24.622;2023-05-22T02:01:57;99310.56;;;16.82;100.00
12203;BME280;6164;42.178;24.622;2023-05-22T02:04:28;99315.69;;;16.84;100.00
12203;BME280;6164;42.178;24.622;2023-05-22T02:06:57;99316.72;;;16.83;100.00
12203;BME280;6164;42.178;24.622;2023-05-22T02:09:27;99310.78;;;16.81;100.00
12203;BME280;6164;42.178;24.622;2023-05-22T02:11:54;99314.91;;;16.83;100.00
12203;BME280;6164;42.178;24.622;2023-05-22T02:14:21;99316.94;;;16.81;100.00
12203;BME280;6164;42.178;24.622;2023-05-22T02:16:48;99317.75;;;16.82;100.00
12203;BME280;6164;42.178;24.622;2023-05-22T02:19:15;99318.63;;;16.76;100.00
12203;BME280;6164;42.178;24.622;2023-05-22T02:21:43;99319.09;;;16.66;100.00
12203;BME280;6164;42.178;24.622;2023-05-22T02:24:10;99324.03;;;16.63;100.00
12203;BME280;6164;42.178;24.622;2023-05-22T02:26:37;99316.75;;;16.45;100.00
12203;BME280;6164;42.178;24.622;2023-05-22T02:29:04;99322.03;;;16.52;100.00
12203;BME280;6164;42.178;24.622;2023-05-22T02:31:30;99317.34;;;16.47;100.00
12203;BME280;6164;42.178;24.622;2023-05-22T02:33:57;99323.25;;;16.49;100.00
12203;BME280;6164;42.178;24.622;2023-05-22T02:36:24;99318.53;;;16.51;100.00
12203;BME280;6164;42.178;24.622;2023-05-22T02:38:53;99326.72;;;16.56;100.00
12203;BME280;6164;42.178;24.622;2023-05-22T02:41:20;99326.72;;;16.56;100.00
12203;BME280;6164;42.178;24.622;2023-05-22T02:43:47;99326.50;;;16.58;100.00
12203;BME280;6164;42.178;24.622;2023-05-22T02:46:14;99335.13;;;16.60;100.00
12203;BME280;6164;42.178;24.622;2023-05-22T02:48:40;99327.34;;;16.58;100.00
12203;BME280;6164;42.178;24.622;2023-05-22T02:51:07;99318.53;;;16.51;100.00
12203;BME280;6164;42.178;24.622;2023-05-22T02:53:34;99320.78;;;16.54;100.00
12203;BME280;6164;42.178;24.622;2023-05-22T02:56:06;99331.44;;;16.54;100.00
12203;BME280;6164;42.178;24.622;2023-05-22T02:58:33;99325.34;;;16.47;100.00
12203;BME280;6164;42.178;24.622;2023-05-22T03:01:00;99324.72;;;16.39;100.00
12203;BME280;6164;42.178;24.622;2023-05-22T03:03:27;99324.13;;;16.37;100.00
12203;BME280;6164;42.178;24.622;2023-05-22T03:05:55;99329.47;;;16.30;100.00
12203;BME280;6164;42.178;24.622;2023-05-22T03:08:23;99331.94;;;16.32;100.00
12203;BME280;6164;42.178;24.622;2023-05-22T03:10:50;99335.22;;;16.34;100.00
12203;BME280;6164;42.178;24.622;2023-05-22T03:13:18;99336.63;;;16.36;100.00
12203;BME280;6164;42.178;24.622;2023-05-22T03:15:45;99336.63;;;16.36;100.00
12203;BME280;6164;42.178;24.622;2023-05-22T03:18:11;99333.34;;;16.34;100.00
12203;BME280;6164;42.178;24.622;2023-05-22T03:20:38;99324.94;;;16.37;100.00
12203;BME280;6164;42.178;24.622;2023-05-22T03:23:06;99322.94;;;16.26;100.00
12203;BME280;6164;42.178;24.622;2023-05-22T03:25:32;99327.66;;;16.24;100.00
12203;BME280;6164;42.178;24.622;2023-05-22T03:27:59;99323.41;;;16.10;100.00
12203;BME280;6164;42.178;24.622;2023-05-22T03:30:27;99326.31;;;16.02;100.00
12203;BME280;6164;42.178;24.622;2023-05-22T03:32:54;99328.78;;;15.91;100.00
12203;BME280;6164;42.178;24.622;2023-05-22T03:35:21;99332.50;;;15.83;100.00
12203;BME280;6164;42.178;24.622;2023-05-22T03:37:49;99311.81;;;15.72;100.00
12203;BME280;6164;42.178;24.622;2023-05-22T03:40:16;99337.59;;;15.91;100.00
12203;BME280;6164;42.178;24.622;2023-05-22T03:42:43;99332.69;;;15.95;100.00
12203;BME280;6164;42.178;24.622;2023-05-22T03:45:10;99337.78;;;16.03;100.00
12203;BME280;6164;42.178;24.622;2023-05-22T03:47:38;99343.09;;;16.09;100.00
12203;BME280;6164;42.178;24.622;2023-05-22T03:50:05;99344.25;;;16.20;100.00
12203;BME280;6164;42.178;24.622;2023-05-22T03:52:32;99334.41;;;16.27;100.00
12203;BME280;6164;42.178;24.622;2023-05-22T03:54:59;99340.31;;;16.35;100.00
12203;BME280;6164;42.178;24.622;2023-05-22T03:57:26;99336.84;;;16.28;100.00
12203;BME280;6164;42.178;24.622;2023-05-22T03:59:52;99339.53;;;16.22;100.00
12203;BME280;6164;42.178;24.622;2023-05-22T04:02:19;99348.38;;;16.22;100.00
12203;BME280;6164;42.178;24.622;2023-05-22T04:04:47;99348.56;;;16.21;100.00
12203;BME280;6164;42.178;24.622;2023-05-22T04:07:15;99350.59;;;16.25;100.00
12203;BME280;6164;42.178;24.622;2023-05-22T04:09:42;99359.78;;;16.29;100.00
12203;BME280;6164;42.178;24.622;2023-05-22T04:12:09;99364.53;;;16.27;100.00
12203;BME280;6164;42.178;24.622;2023-05-22T04:14:36;99352.22;;;16.26;100.00
12203;BME280;6164;42.178;24.622;2023-05-22T04:17:03;99352.38;;;16.38;100.00
12203;BME280;6164;42.178;24.622;2023-05-22T04:19:30;99353.03;;;16.33;100.00
12203;BME280;6164;42.178;24.622;2023-05-22T04:21:58;99352.19;;;16.33;100.00
12203;BME280;6164;42.178;24.622;2023-05-22T04:24:25;99351.38;;;16.39;100.00
12203;BME280;6164;42.178;24.622;2023-05-22T04:26:51;99356.50;;;16.40;100.00
12203;BME280;6164;42.178;24.622;2023-05-22T04:29:18;99350.38;;;16.33;100.00
12203;BME280;6164;42.178;24.622;2023-05-22T04:31:47;99352.19;;;16.33;100.00
12203;BME280;6164;42.178;24.622;2023-05-22T04:34:14;99348.06;;;16.43;100.00
12203;BME280;6164;42.178;24.622;2023-05-22T04:36:41;99361.41;;;16.50;100.00
12203;BME280;6164;42.178;24.622;2023-05-22T04:39:10;99334.94;;;16.55;100.00
12203;BME280;6164;42.178;24.622;2023-05-22T04:41:38;99359.44;;;16.76;100.00
12203;BME280;6164;42.178;24.622;2023-05-22T04:44:04;99354.44;;;16.86;100.00
12203;BME280;6164;42.178;24.622;2023-05-22T04:46:31;99356.25;;;16.92;100.00
12203;BME280;6164;42.178;24.622;2023-05-22T04:49:00;99358.03;;;16.98;100.00
12203;BME280;6164;42.178;24.622;2023-05-22T04:51:27;99347.81;;;16.95;100.00
12203;BME280;6164;42.178;24.622;2023-05-22T04:53:55;99355.34;;;17.05;100.00
12203;BME280;6164;42.178;24.622;2023-05-22T04:56:24;99349.66;;;17.01;100.00
12203;BME280;6164;42.178;24.622;2023-05-22T04:58:51;99350.00;;;17.05;100.00
12203;BME280;6164;42.178;24.622;2023-05-22T05:01:18;99346.81;;;16.96;100.00
12203;BME280;6164;42.178;24.622;2023-05-22T05:03:45;99348.16;;;17.05;100.00
12203;BME280;6164;42.178;24.622;2023-05-22T05:06:11;99349.03;;;16.99;100.00
12203;BME280;6164;42.178;24.622;2023-05-22T05:08:38;99345.66;;;17.10;100.00
12203;BME280;6164;42.178;24.622;2023-05-22T05:11:06;99352.38;;;17.20;100.00
12203;BME280;6164;42.178;24.622;2023-05-22T05:13:34;99345.50;;;17.05;100.00
12203;BME280;6164;42.178;24.622;2023-05-22T05:16:01;99343.34;;;16.89;100.00
12203;BME280;6164;42.178;24.622;2023-05-22T05:18:28;99351.53;;;16.94;100.00
12203;BME280;6164;42.178;24.622;2023-05-22T05:20:55;99339.03;;;16.95;100.00
12203;BME280;6164;42.178;24.622;2023-05-22T05:23:21;99347.63;;;16.90;100.00
12203;BME280;6164;42.178;24.622;2023-05-22T05:25:48;99351.06;;;17.04;100.00
12203;BME280;6164;42.178;24.622;2023-05-22T05:28:15;99348.69;;;17.21;100.00
12203;BME280;6164;42.178;24.622;2023-05-22T05:30:43;99344.59;;;17.18;100.00
12203;BME280;6164;42.178;24.622;2023-05-22T05:33:09;99348.06;;;17.19;100.00
12203;BME280;6164;42.178;24.622;2023-05-22T05:35:36;99333.28;;;17.23;100.00
12203;BME280;6164;42.178;24.622;2023-05-22T05:38:03;99349.44;;;17.28;100.00
12203;BME280;6164;42.178;24.622;2023-05-22T05:40:29;99306.94;;;17.08;100.00
12203;BME280;6164;42.178;24.622;2023-05-22T05:42:56;99344.06;;;17.34;100.00
12203;BME280;6164;42.178;24.622;2023-05-22T05:45:23;99347.59;;;17.28;100.00
12203;BME280;6164;42.178;24.622;2023-05-22T05:47:51;99343.63;;;17.37;100.00
12203;BME280;6164;42.178;24.622;2023-05-22T05:50:18;99354.75;;;17.59;100.00
12203;BME280;6164;42.178;24.622;2023-05-22T05:52:44;99359.75;;;17.73;100.00
12203;BME280;6164;42.178;24.622;2023-05-22T05:55:11;99360.91;;;17.84;100.00
12203;BME280;6164;42.178;24.622;2023-05-22T05:57:38;99359.28;;;18.01;100.00
12203;BME280;6164;42.178;24.622;2023-05-22T06:00:06;99356.44;;;17.96;100.00
12203;BME280;6164;42.178;24.622;2023-05-22T06:02:35;99364.25;;;17.97;100.00
12203;BME280;6164;42.178;24.622;2023-05-22T06:05:04;99355.13;;;17.87;100.00
12203;BME280;6164;42.178;24.622;2023-05-22T06:07:30;99366.91;;;17.97;100.00
12203;BME280;6164;42.178;24.622;2023-05-22T06:09:58;99374.44;;;18.07;100.00
12203;BME280;6164;42.178;24.622;2023-05-22T06:12:25;99375.84;;;18.09;100.00
12203;BME280;6164;42.178;24.622;2023-05-22T06:14:52;99381.19;;;18.09;100.00
12203;BME280;6164;42.178;24.622;2023-05-22T06:17:18;99371.47;;;18.15;100.00
12203;BME280;6164;42.178;24.622;2023-05-22T06:19:45;99370.03;;;18.30;100.00
12203;BME280;6164;42.178;24.622;2023-05-22T06:22:13;99378.63;;;18.39;100.00
12203;BME280;6164;42.178;24.622;2023-05-22T06:24:40;99369.97;;;18.55;100.00
12203;BME280;6164;42.178;24.622;2023-05-22T06:27:07;99369.97;;;18.73;100.00
12203;BME280;6164;42.178;24.622;2023-05-22T06:29:33;99370.50;;;18.93;100.00
12203;BME280;6164;42.178;24.622;2023-05-22T06:32:00;99355.34;;;19.17;100.00
12203;BME280;6164;42.178;24.622;2023-05-22T06:34:27;99358.28;;;19.27;100.00
12203;BME280;6164;42.178;24.622;2023-05-22T06:36:54;99351.94;;;19.39;100.00
12203;BME280;6164;42.178;24.622;2023-05-22T06:39:22;99359.25;;;19.44;100.00
12203;BME280;6164;42.178;24.622;2023-05-22T06:41:48;99364.50;;;19.39;100.00
12203;BME280;6164;42.178;24.622;2023-05-22T06:44:15;99360.69;;;19.46;100.00
12203;BME280;6164;42.178;24.622;2023-05-22T06:46:42;99359.53;;;19.65;100.00
12203;BME280;6164;42.178;24.622;2023-05-22T06:49:08;99373.84;;;20.06;100.00
12203;BME280;6164;42.178;24.622;2023-05-22T06:51:35;99338.31;;;20.10;100.00
12203;BME280;6164;42.178;24.622;2023-05-22T06:54:02;99363.47;;;20.44;100.00
12203;BME280;6164;42.178;24.622;2023-05-22T06:56:32;99366.22;;;20.60;100.00
12203;BME280;6164;42.178;24.622;2023-05-22T06:58:59;99370.47;;;20.73;100.00
12203;BME280;6164;42.178;24.622;2023-05-22T07:01:26;99363.09;;;20.80;100.00
12203;BME280;6164;42.178;24.622;2023-05-22T07:03:55;99365.97;;;20.90;100.00
12203;BME280;6164;42.178;24.622;2023-05-22T07:06:21;99358.81;;;20.95;100.00
12203;BME280;6164;42.178;24.622;2023-05-22T07:08:49;99360.38;;;20.91;100.00
12203;BME280;6164;42.178;24.622;2023-05-22T07:11:15;99360.44;;;21.08;100.00
12203;BME280;6164;42.178;24.622;2023-05-22T07:13:44;99366.56;;;21.20;100.00
12203;BME280;6164;42.178;24.622;2023-05-22T07:16:10;99366.63;;;21.25;100.00
12203;BME280;6164;42.178;24.622;2023-05-22T07:18:37;99368.75;;;21.23;100.00
12203;BME280;6164;42.178;24.622;2023-05-22T07:21:04;99363.53;;;21.00;100.00
12203;BME280;6164;42.178;24.622;2023-05-22T07:23:31;99369.31;;;21.09;100.00
12203;BME280;6164;42.178;24.622;2023-05-22T07:25:58;99361.66;;;21.17;100.00
12203;BME280;6164;42.178;24.622;2023-05-22T07:28:24;99371.38;;;21.35;98.80
12203;BME280;6164;42.178;24.622;2023-05-22T07:30:52;99372.00;;;21.42;93.34
12203;BME280;6164;42.178;24.622;2023-05-22T07:33:19;99367.16;;;21.55;99.22
12203;BME280;6164;42.178;24.622;2023-05-22T07:35:46;99363.34;;;21.51;95.28
12203;BME280;6164;42.178;24.622;2023-05-22T07:38:13;99364.88;;;21.47;98.19
12203;BME280;6164;42.178;24.622;2023-05-22T07:40:39;99363.88;;;21.53;100.00
12203;BME280;6164;42.178;24.622;2023-05-22T07:43:06;99369.41;;;21.63;99.28
12203;BME280;6164;42.178;24.622;2023-05-22T07:45:33;99364.53;;;21.60;97.29
12203;BME280;6164;42.178;24.622;2023-05-22T07:48:01;99367.97;;;21.72;92.26
12203;BME280;6164;42.178;24.622;2023-05-22T07:50:28;99373.53;;;21.82;90.66
12203;BME280;6164;42.178;24.622;2023-05-22T07:52:57;99374.16;;;21.73;88.25
12203;BME280;6164;42.178;24.622;2023-05-22T07:55:24;99366.31;;;21.71;90.71
12203;BME280;6164;42.178;24.622;2023-05-22T07:57:51;99369.84;;;21.88;88.86
12203;BME280;6164;42.178;24.622;2023-05-22T08:00:19;99362.34;;;21.90;87.47
12203;BME280;6164;42.178;24.622;2023-05-22T08:02:46;99371.50;;;22.11;85.54
12203;BME280;6164;42.178;24.622;2023-05-22T08:05:14;99360.13;;;22.04;83.15
12203;BME280;6164;42.178;24.622;2023-05-22T08:07:41;99365.44;;;22.37;87.11
12203;BME280;6164;42.178;24.622;2023-05-22T08:10:13;99374.84;;;22.56;81.82
12203;BME280;6164;42.178;24.622;2023-05-22T08:12:40;99382.28;;;22.71;81.54
12203;BME280;6164;42.178;24.622;2023-05-22T08:15:07;99376.28;;;22.90;81.82
12203;BME280;6164;42.178;24.622;2023-05-22T08:17:34;99378.63;;;23.08;80.97
12203;BME280;6164;42.178;24.622;2023-05-22T08:20:01;99383.31;;;23.18;77.09
12203;BME280;6164;42.178;24.622;2023-05-22T08:22:30;99395.22;;;23.22;72.61
12203;BME280;6164;42.178;24.622;2023-05-22T08:24:58;99392.38;;;23.33;69.07
12203;BME280;6164;42.178;24.622;2023-05-22T08:27:28;99402.13;;;23.39;64.72
12203;BME280;6164;42.178;24.622;2023-05-22T08:29:54;99410.16;;;23.61;63.45
12203;BME280;6164;42.178;24.622;2023-05-22T08:32:21;99407.06;;;23.79;63.39
12203;BME280;6164;42.178;24.622;2023-05-22T08:34:48;99397.78;;;23.97;66.16
12203;BME280;6164;42.178;24.622;2023-05-22T08:37:15;99412.41;;;24.06;62.00
12203;BME280;6164;42.178;24.622;2023-05-22T08:39:43;99399.88;;;24.26;62.92
12203;BME280;6164;42.178;24.622;2023-05-22T08:42:10;99383.22;;;24.39;66.73
12203;BME280;6164;42.178;24.622;2023-05-22T08:44:37;99375.97;;;24.55;65.64
12203;BME280;6164;42.178;24.622;2023-05-22T08:47:04;99391.13;;;24.61;64.55
12203;BME280;6164;42.178;24.622;2023-05-22T08:49:34;99393.25;;;24.54;63.14
12203;BME280;6164;42.178;24.622;2023-05-22T08:52:04;99371.16;;;24.62;65.86
12203;BME280;6164;42.178;24.622;2023-05-22T08:54:35;99383.84;;;24.61;64.17
12203;BME280;6164;42.178;24.622;2023-05-22T08:57:05;99358.91;;;24.34;63.77
12203;BME280;6164;42.178;24.622;2023-05-22T08:59:33;99375.41;;;24.53;63.83
12203;BME280;6164;42.178;24.622;2023-05-22T09:02:02;99375.44;;;24.48;63.97
12203;BME280;6164;42.178;24.622;2023-05-22T09:04:30;99374.59;;;24.47;64.39
12203;BME280;6164;42.178;24.622;2023-05-22T09:06:56;99360.09;;;24.63;67.10
12203;BME280;6164;42.178;24.622;2023-05-22T09:09:30;99371.50;;;24.76;64.10
12203;BME280;6164;42.178;24.622;2023-05-22T09:11:57;99368.03;;;24.85;64.08
12203;BME280;6164;42.178;24.622;2023-05-22T09:14:25;99378.59;;;25.02;62.57
12203;BME280;6164;42.178;24.622;2023-05-22T09:16:52;99376.47;;;25.09;61.16
12203;BME280;6164;42.178;24.622;2023-05-22T09:19:19;99373.78;;;25.19;61.60
12203;BME280;6164;42.178;24.622;2023-05-22T09:21:46;99376.22;;;25.30;62.39
12203;BME280;6164;42.178;24.622;2023-05-22T09:24:13;99360.84;;;25.46;64.11
12203;BME280;6164;42.178;24.622;2023-05-22T09:26:40;99389.50;;;25.57;58.40
12203;BME280;6164;42.178;24.622;2023-05-22T09:29:07;99391.13;;;25.68;58.12
12203;BME280;6164;42.178;24.622;2023-05-22T09:31:39;99367.34;;;25.60;61.40
12203;BME280;6164;42.178;24.622;2023-05-22T09:34:07;99383.56;;;25.55;59.56
12203;BME280;6164;42.178;24.622;2023-05-22T09:36:35;99381.66;;;25.45;58.69
12203;BME280;6164;42.178;24.622;2023-05-22T09:39:03;99384.91;;;25.42;58.33
12203;BME280;6164;42.178;24.622;2023-05-22T09:41:33;99369.50;;;25.43;60.68
12203;BME280;6164;42.178;24.622;2023-05-22T09:44:00;99373.81;;;25.44;58.64
12203;BME280;6164;42.178;24.622;2023-05-22T09:46:27;99365.69;;;25.39;58.33
12203;BME280;6164;42.178;24.622;2023-05-22T09:48:56;99377.88;;;25.41;56.69
12203;BME280;6164;42.178;24.622;2023-05-22T09:51:22;99406.53;;;25.47;54.91
12203;BME280;6164;42.178;24.622;2023-05-22T09:53:54;99405.72;;;25.57;55.55
12203;BME280;6164;42.178;24.622;2023-05-22T09:56:30;99395.16;;;25.60;56.11
12203;BME280;6164;42.178;24.622;2023-05-22T09:58:57;99401.94;;;25.53;53.36
12203;BME280;6164;42.178;24.622;2023-05-22T10:01:25;99387.34;;;25.54;55.02
12203;BME280;6164;42.178;24.622;2023-05-22T10:03:53;99390.31;;;25.52;56.21
12203;BME280;6164;42.178;24.622;2023-05-22T10:06:23;99411.88;;;25.32;52.81
12203;BME280;6164;42.178;24.622;2023-05-22T10:08:55;99374.59;;;25.34;54.99
12203;BME280;6164;42.178;24.622;2023-05-22T10:11:25;99384.63;;;25.39;54.71
12203;BME280;6164;42.178;24.622;2023-05-22T10:13:54;99357.88;;;25.42;57.41
12203;BME280;6164;42.178;24.622;2023-05-22T10:16:26;99357.06;;;25.47;57.02
12203;BME280;6164;42.178;24.622;2023-05-22T10:18:54;99357.88;;;25.57;56.08
12203;BME280;6164;42.178;24.622;2023-05-22T10:21:23;99359.75;;;25.67;55.52
12203;BME280;6164;42.178;24.622;2023-05-22T10:23:50;99375.97;;;25.77;52.89
12203;BME280;6164;42.178;24.622;2023-05-22T10:26:18;99410.56;;;25.75;49.73
12203;BME280;6164;42.178;24.622;2023-05-22T10:28:51;99402.19;;;25.91;50.73
12203;BME280;6164;42.178;24.622;2023-05-22T10:31:26;99414.94;;;26.11;49.72
12203;BME280;6164;42.178;24.622;2023-05-22T10:33:58;99428.66;;;26.35;49.42
12203;BME280;6164;42.178;24.622;2023-05-22T10:36:40;99432.47;;;26.24;48.48
12203;BME280;6164;42.178;24.622;2023-05-22T10:39:25;99429.78;;;26.19;48.36
12203;BME280;6164;42.178;24.622;2023-05-22T10:41:55;99417.88;;;26.20;49.05
12203;BME280;6164;42.178;24.622;2023-05-22T10:44:21;99429.78;;;26.24;48.47
12203;BME280;6164;42.178;24.622;2023-05-22T10:46:48;99426.75;;;26.50;48.28
12203;BME280;6164;42.178;24.622;2023-05-22T10:49:19;99465.94;;;26.78;44.92
12203;BME280;6164;42.178;24.622;2023-05-22T10:51:54;99439.59;;;26.93;47.41
12203;BME280;6164;42.178;24.622;2023-05-22T10:54:37;99449.22;;;27.19;46.33
12203;BME280;6164;42.178;24.622;2023-05-22T10:57:15;99414.03;;;27.14;44.89
12203;BME280;6164;42.178;24.622;2023-05-22T10:59:43;99418.75;;;27.43;46.59
12203;BME280;6164;42.178;24.622;2023-05-22T11:02:24;99439.34;;;27.44;45.25
12203;BME280;6164;42.178;24.622;2023-05-22T11:04:53;99434.44;;;27.46;45.36
12203;BME280;6164;42.178;24.622;2023-05-22T11:07:21;99414.03;;;27.53;47.08
12203;BME280;6164;42.178;24.622;2023-05-22T11:09:48;99439.44;;;27.67;44.89
12203;BME280;6164;42.178;24.622;2023-05-22T11:12:19;99413.03;;;27.78;46.35
12203;BME280;6164;42.178;24.622;2023-05-22T11:14:50;99429.88;;;27.75;44.81
12203;BME280;6164;42.178;24.622;2023-05-22T11:17:20;99452.78;;;27.59;43.64
12203;BME280;6164;42.178;24.622;2023-05-22T11:19:56;99457.84;;;27.27;43.47
12203;BME280;6164;42.178;24.622;2023-05-22T11:22:29;99414.22;;;26.64;48.82
12203;BME280;6164;42.178;24.622;2023-05-22T11:24:56;99284.34;;;25.50;59.06
12203;BME280;6164;42.178;24.622;2023-05-22T11:27:23;99248.41;;;24.95;62.63
12203;BME280;6164;42.178;24.622;2023-05-22T11:29:50;99235.16;;;24.73;65.18
12203;BME280;6164;42.178;24.622;2023-05-22T11:32:17;99196.47;;;24.27;67.84
12203;BME280;6164;42.178;24.622;2023-05-22T11:34:47;99218.88;;;24.33;72.03
12203;BME280;6164;42.178;24.622;2023-05-22T11:37:16;99217.19;;;24.22;75.23
12203;BME280;6164;42.178;24.622;2023-05-22T11:39:50;99242.22;;;24.02;74.68
12203;BME280;6164;42.178;24.622;2023-05-22T11:42:18;99243.19;;;23.86;74.71
12203;BME280;6164;42.178;24.622;2023-05-22T11:44:45;99251.41;;;23.60;80.21
12203;BME280;6164;42.178;24.622;2023-05-22T11:47:13;99268.38;;;23.55;80.90
12203;BME280;6164;42.178;24.622;2023-05-22T11:49:40;99278.72;;;23.36;83.87
12203;BME280;6164;42.178;24.622;2023-05-22T11:52:07;99273.97;;;23.17;89.14
12203;BME280;6164;42.178;24.622;2023-05-22T11:54:35;99290.00;;;23.02;89.12
12203;BME280;6164;42.178;24.622;2023-05-22T11:57:07;99292.38;;;22.98;92.39
12203;BME280;6164;42.178;24.622;2023-05-22T11:59:35;99295.38;;;23.02;94.35
12203;BME280;6164;42.178;24.622;2023-05-22T12:02:03;99308.84;;;23.02;96.87
12203;BME280;6164;42.178;24.622;2023-05-22T12:04:32;99310.97;;;23.00;99.36
12203;BME280;6164;42.178;24.622;2023-05-22T12:07:00;99328.41;;;22.92;100.00
12203;BME280;6164;42.178;24.622;2023-05-22T12:09:28;99344.28;;;22.67;99.44
12203;BME280;6164;42.178;24.622;2023-05-22T12:11:56;99345.97;;;22.52;99.53
12203;BME280;6164;42.178;24.622;2023-05-22T12:14:27;99330.41;;;22.32;100.00
12203;BME280;6164;42.178;24.622;2023-05-22T12:16:54;99339.84;;;21.96;100.00
12203;BME280;6164;42.178;24.622;2023-05-22T12:19:21;99343.22;;;21.70;100.00
12203;BME280;6164;42.178;24.622;2023-05-22T12:21:49;99320.03;;;21.31;100.00
12203;BME280;6164;42.178;24.622;2023-05-22T12:24:16;99352.00;;;21.16;100.00
12203;BME280;6164;42.178;24.622;2023-05-22T12:26:50;99339.19;;;20.78;100.00
12203;BME280;6164;42.178;24.622;2023-05-22T12:29:18;99336.75;;;20.49;100.00
12203;BME280;6164;42.178;24.622;2023-05-22T12:31:46;99331.56;;;20.31;100.00
12203;BME280;6164;42.178;24.622;2023-05-22T12:34:14;99326.56;;;20.00;100.00
12203;BME280;6164;42.178;24.622;2023-05-22T12:36:42;99317.69;;;20.11;100.00
12203;BME280;6164;42.178;24.622;2023-05-22T12:39:10;99301.03;;;20.09;100.00
12203;BME280;6164;42.178;24.622;2023-05-22T12:41:37;99297.53;;;19.97;100.00
12203;BME280;6164;42.178;24.622;2023-05-22T12:44:04;99284.09;;;19.57;100.00
12203;BME280;6164;42.178;24.622;2023-05-22T12:46:31;99292.91;;;19.34;100.00
